Time;durP1;ratioP1;P1;durP2;ratioP2;P2;SDS_P1;SDS_P2;PMS_P1;PMS_P2;Temp;Humidity;BMP_temperature;BMP_pressure;BME280_temperature;BME280_humidity;BME280_pressure;Samples;Min_cycle;Max_cycle;Signal;HPM_P1;HPM_P2
2023/06/22 00:00:53;;;;;;;12.98;11.60;;;15.30;99.90;;;;;;5091456;28;20055;-58
2023/06/22 00:03:19;;;;;;;12.95;11.30;;;15.30;99.90;;;;;;5091298;28;20417;-57
2023/06/22 00:05:46;;;;;;;11.13;9.90;;;15.30;99.90;;;;;;5090862;28;20241;-57
2023/06/22 00:08:12;;;;;;;12.30;11.07;;;15.30;99.90;;;;;;5092067;28;20051;-57
2023/06/22 00:10:38;;;;;;;17.30;15.00;;;15.00;99.90;;;;;;5090731;28;20150;-57
2023/06/22 00:13:05;;;;;;;17.98;14.85;;;15.10;99.90;;;;;;5090435;28;20052;-58
2023/06/22 00:15:31;;;;;;;18.85;16.80;;;15.20;99.90;;;;;;5094811;28;20111;-57
2023/06/22 00:17:57;;;;;;;19.48;16.83;;;15.30;99.90;;;;;;5093557;28;20043;-58
2023/06/22 00:20:27;;;;;;;18.92;15.50;;;15.10;99.90;;;;;;5095131;28;20048;-58
2023/06/22 00:22:57;;;;;;;22.23;18.58;;;15.00;99.90;;;;;;5086128;28;20384;-57
2023/06/22 00:25:23;;;;;;;28.77;19.92;;;14.80;99.90;;;;;;5095648;28;20674;-57
2023/06/22 00:27:50;;;;;;;25.40;17.98;;;14.80;99.90;;;;;;5096441;28;20039;-57
2023/06/22 00:30:16;;;;;;;26.70;19.92;;;15.00;99.90;;;;;;5095257;28;20043;-57
2023/06/22 00:32:45;;;;;;;21.45;17.58;;;14.90;99.90;;;;;;5094669;28;20075;-57
2023/06/22 00:35:14;;;;;;;26.80;22.40;;;14.90;99.90;;;;;;5072016;28;20479;-57
2023/06/22 00:37:42;;;;;;;21.80;17.08;;;14.90;99.90;;;;;;5094219;28;20041;-57
2023/06/22 00:40:13;;;;;;;23.10;17.27;;;14.70;99.90;;;;;;5090392;28;20538;-57
2023/06/22 00:42:39;;;;;;;19.30;16.53;;;14.90;99.90;;;;;;5095526;28;20050;-58
2023/06/22 00:45:06;;;;;;;17.65;15.75;;;15.70;99.90;;;;;;5094165;28;20301;-57
2023/06/22 00:47:32;;;;;;;18.02;15.27;;;15.00;99.90;;;;;;5094038;28;20046;-57
2023/06/22 00:49:58;;;;;;;18.08;15.55;;;15.10;99.90;;;;;;5094373;28;20036;-57
2023/06/22 00:52:28;;;;;;;16.45;14.65;;;14.80;99.90;;;;;;5094697;28;20028;-58
2023/06/22 00:54:56;;;;;;;15.00;13.38;;;14.70;99.90;;;;;;5095868;28;20050;-57
2023/06/22 00:57:25;;;;;;;17.75;14.70;;;14.90;99.90;;;;;;5094645;28;20464;-58
2023/06/22 00:59:51;;;;;;;18.75;15.23;;;14.90;99.90;;;;;;5097331;28;20036;-58
2023/06/22 01:02:17;;;;;;;16.02;14.43;;;14.80;99.90;;;;;;5094116;28;20100;-58
2023/06/22 01:04:43;;;;;;;20.10;13.98;;;14.70;99.90;;;;;;5087400;28;20044;-57
2023/06/22 01:07:27;;;;;;;15.70;12.88;;;14.90;99.90;;;;;;5093814;28;20040;-58
2023/06/22 01:10:17;;;;;;;17.00;14.18;;;14.50;99.90;;;;;;5083024;28;20688;-58
2023/06/22 01:12:48;;;;;;;14.23;12.15;;;14.70;99.90;;;;;;5093801;28;20341;-58
2023/06/22 01:15:23;;;;;;;16.80;12.98;;;14.50;99.90;;;;;;5093867;28;20054;-57
2023/06/22 01:17:52;;;;;;;14.02;12.10;;;14.60;99.90;;;;;;5093113;28;20126;-57
2023/06/22 01:20:19;;;;;;;15.35;12.60;;;14.60;99.90;;;;;;5090355;28;20430;-58
2023/06/22 01:23:11;;;;;;;18.92;13.25;;;14.40;99.90;;;;;;5093624;28;20452;-57
2023/06/22 01:26:06;;;;;;;15.35;12.75;;;15.60;99.90;;;;;;5092510;28;20054;-58
2023/06/22 01:28:45;;;;;;;15.98;14.27;;;14.40;99.90;;;;;;5055539;28;20063;-58
2023/06/22 01:31:14;;;;;;;16.17;12.75;;;14.50;99.90;;;;;;5093202;28;20199;-58
2023/06/22 01:33:43;;;;;;;15.43;12.40;;;14.50;99.90;;;;;;5093089;28;20039;-57
2023/06/22 01:36:10;;;;;;;15.75;12.63;;;14.40;99.90;;;;;;5092335;28;20047;-57
2023/06/22 01:38:38;;;;;;;16.90;14.18;;;14.40;99.90;;;;;;5094249;28;20282;-57
2023/06/22 01:41:04;;;;;;;139.13;25.30;;;15.10;99.90;;;;;;5094008;28;20143;-58
2023/06/22 01:43:30;;;;;;;32.00;18.35;;;14.40;99.90;;;;;;5092852;28;20138;-58
2023/06/22 01:45:58;;;;;;;17.77;15.85;;;14.40;99.90;;;;;;5093152;28;20104;-58
2023/06/22 01:48:25;;;;;;;18.13;16.17;;;14.40;99.90;;;;;;5093165;28;20039;-58
2023/06/22 01:50:53;;;;;;;20.88;17.20;;;14.30;99.90;;;;;;5092937;28;20055;-57
2023/06/22 01:53:21;;;;;;;19.83;17.77;;;14.40;99.90;;;;;;5093286;27;20039;-57
2023/06/22 01:55:48;;;;;;;18.90;17.05;;;14.50;99.90;;;;;;5093482;28;20334;-57
2023/06/22 01:58:14;;;;;;;16.02;14.52;;;14.30;99.90;;;;;;5094461;28;20470;-57
2023/06/22 02:00:43;;;;;;;13.32;12.02;;;14.20;99.90;;;;;;5086262;28;20074;-57
2023/06/22 02:03:15;;;;;;;12.50;11.23;;;14.30;99.90;;;;;;5085497;28;20512;-58
2023/06/22 02:05:49;;;;;;;13.10;11.52;;;14.30;99.90;;;;;;5093810;28;20031;-58
2023/06/22 02:08:29;;;;;;;13.10;11.90;;;14.20;99.90;;;;;;5092929;28;20413;-58
2023/06/22 02:10:56;;;;;;;12.20;11.00;;;14.30;99.90;;;;;;5093574;28;20040;-57
2023/06/22 02:13:24;;;;;;;11.25;10.15;;;14.10;99.90;;;;;;5094111;28;20035;-58
2023/06/22 02:15:50;;;;;;;13.35;11.88;;;13.80;99.90;;;;;;5084214;28;20050;-58
2023/06/22 02:18:17;;;;;;;16.98;14.07;;;14.20;99.90;;;;;;5092598;28;20046;-57
2023/06/22 02:20:42;;;;;;;20.88;16.95;;;14.20;99.90;;;;;;5092751;28;20613;-57
2023/06/22 02:23:08;;;;;;;33.22;17.00;;;14.00;99.90;;;;;;5087232;28;20048;-57
2023/06/22 02:25:35;;;;;;;11.18;10.15;;;14.10;99.90;;;;;;5092406;28;20126;-57
2023/06/22 02:28:01;;;;;;;34.17;18.13;;;14.10;99.90;;;;;;5090821;28;20564;-57
2023/06/22 02:30:27;;;;;;;16.95;14.43;;;14.30;99.90;;;;;;5094896;28;20050;-57
2023/06/22 02:32:58;;;;;;;29.55;13.63;;;14.10;99.90;;;;;;5092915;28;20043;-57
2023/06/22 02:35:31;;;;;;;20.98;14.07;;;14.10;99.90;;;;;;5092239;28;20040;-57
2023/06/22 02:37:59;;;;;;;22.10;12.55;;;14.00;99.90;;;;;;5092435;28;20047;-57
2023/06/22 02:40:25;;;;;;;14.68;13.32;;;13.80;99.90;;;;;;5091118;28;20047;-58
2023/06/22 02:42:51;;;;;;;13.77;12.43;;;13.80;99.90;;;;;;5091728;28;20040;-58
2023/06/22 02:45:16;;;;;;;13.50;12.23;;;14.00;99.90;;;;;;5092305;28;20090;-58
2023/06/22 02:47:42;;;;;;;13.55;12.35;;;13.80;99.90;;;;;;5091614;28;20668;-57
2023/06/22 02:50:08;;;;;;;13.05;11.75;;;13.70;99.90;;;;;;5091377;28;20067;-58
2023/06/22 02:52:34;;;;;;;14.10;12.77;;;13.60;99.90;;;;;;5091750;27;20346;-57
2023/06/22 02:55:00;;;;;;;81.07;14.15;;;13.70;99.90;;;;;;5091065;28;20043;-57
2023/06/22 02:57:25;;;;;;;32.55;19.77;;;13.40;99.90;;;;;;5091168;28;20043;-57
2023/06/22 02:59:51;;;;;;;17.48;14.32;;;13.40;99.90;;;;;;5094215;28;20055;-57
2023/06/22 03:02:17;;;;;;;28.23;15.20;;;13.60;99.90;;;;;;5081087;28;20562;-58
2023/06/22 03:04:44;;;;;;;15.38;13.98;;;13.50;99.90;;;;;;5090735;28;20298;-58
2023/06/22 03:07:10;;;;;;;14.88;13.45;;;13.50;99.90;;;;;;5091852;28;20119;-58
2023/06/22 03:09:35;;;;;;;14.70;13.43;;;13.50;99.90;;;;;;5083627;28;20027;-58
2023/06/22 03:12:02;;;;;;;14.07;12.73;;;13.30;99.90;;;;;;5091798;28;20086;-57
2023/06/22 03:14:27;;;;;;;13.77;12.45;;;13.40;99.90;;;;;;5091896;28;20502;-58
2023/06/22 03:16:53;;;;;;;12.20;11.00;;;13.40;99.90;;;;;;5086083;28;20045;-58
2023/06/22 03:19:21;;;;;;;15.38;13.75;;;13.40;99.90;;;;;;5091410;28;20238;-58
2023/06/22 03:21:47;;;;;;;18.98;16.27;;;13.40;99.90;;;;;;5092328;28;20040;-58
2023/06/22 03:24:12;;;;;;;16.75;15.05;;;13.50;99.90;;;;;;5090701;28;20047;-57
2023/06/22 03:26:38;;;;;;;16.02;14.43;;;13.60;99.90;;;;;;5093779;28;20036;-58
2023/06/22 03:29:04;;;;;;;16.45;14.77;;;13.60;99.90;;;;;;5091458;28;20051;-57
2023/06/22 03:31:30;;;;;;;16.95;15.35;;;13.50;99.90;;;;;;5089392;28;20041;-57
2023/06/22 03:33:55;;;;;;;18.67;13.38;;;13.60;99.90;;;;;;5092759;28;20377;-58
2023/06/22 03:36:22;;;;;;;17.38;15.68;;;13.70;99.90;;;;;;5091466;28;20428;-57
2023/06/22 03:38:49;;;;;;;15.15;13.75;;;13.50;99.90;;;;;;5091235;28;20035;-57
2023/06/22 03:41:16;;;;;;;15.80;14.20;;;13.70;99.90;;;;;;5091373;28;20052;-57
2023/06/22 03:43:41;;;;;;;15.57;14.07;;;13.60;99.90;;;;;;5085649;28;20511;-58
2023/06/22 03:46:07;;;;;;;14.10;12.60;;;13.60;99.90;;;;;;5090798;28;20047;-57
2023/06/22 03:48:33;;;;;;;14.77;13.35;;;13.60;99.90;;;;;;5089257;28;20035;-57
2023/06/22 03:51:00;;;;;;;17.15;15.38;;;13.40;99.90;;;;;;5095866;28;20054;-57
2023/06/22 03:53:25;;;;;;;14.32;12.93;;;13.40;99.90;;;;;;5095889;28;20448;-57
2023/06/22 03:55:52;;;;;;;16.40;14.55;;;13.50;99.90;;;;;;5095260;28;20504;-58
2023/06/22 03:58:20;;;;;;;16.98;15.10;;;13.50;99.90;;;;;;5095611;28;20233;-58
2023/06/22 04:00:50;;;;;;;19.08;16.70;;;13.40;99.90;;;;;;5090832;28;20523;-58
2023/06/22 04:03:16;;;;;;;25.80;22.70;;;13.70;99.90;;;;;;5095340;28;20179;-57
2023/06/22 04:05:42;;;;;;;25.58;22.88;;;13.50;99.90;;;;;;5095249;28;20039;-58
2023/06/22 04:08:08;;;;;;;23.15;20.33;;;13.90;99.90;;;;;;5093981;28;20069;-57
2023/06/22 04:10:34;;;;;;;20.85;18.65;;;13.80;99.90;;;;;;5068855;28;20036;-58
2023/06/22 04:13:00;;;;;;;19.77;17.77;;;14.00;99.90;;;;;;5095133;28;20048;-57
2023/06/22 04:15:26;;;;;;;18.20;16.30;;;13.90;99.90;;;;;;5087751;28;20487;-57
2023/06/22 04:17:52;;;;;;;20.40;18.30;;;13.80;99.90;;;;;;5096140;28;20038;-57
2023/06/22 04:20:17;;;;;;;19.15;16.85;;;13.80;99.90;;;;;;5095406;28;20066;-58
2023/06/22 04:22:43;;;;;;;21.08;18.42;;;14.00;99.90;;;;;;5094541;28;20058;-57
2023/06/22 04:25:09;;;;;;;22.90;20.38;;;13.90;99.90;;;;;;5094355;28;20108;-57
2023/06/22 04:27:37;;;;;;;21.40;19.20;;;14.00;99.90;;;;;;5095428;28;20039;-57
2023/06/22 04:30:08;;;;;;;25.15;20.27;;;13.90;99.90;;;;;;5095516;28;20058;-57
2023/06/22 04:32:37;;;;;;;25.45;22.23;;;14.20;99.90;;;;;;5087031;28;20065;-57
2023/06/22 04:35:04;;;;;;;51.22;30.73;;;14.00;99.90;;;;;;5093934;28;20764;-59
2023/06/22 04:37:31;;;;;;;78.28;32.40;;;14.30;99.90;;;;;;5093684;28;20047;-59
2023/06/22 04:39:57;;;;;;;33.13;28.45;;;14.20;99.90;;;;;;5095569;28;20047;-59
2023/06/22 04:42:22;;;;;;;37.50;30.67;;;14.60;99.90;;;;;;5095192;28;20044;-59
2023/06/22 04:44:48;;;;;;;29.10;25.33;;;14.40;99.90;;;;;;5085416;28;20047;-59
2023/06/22 04:47:14;;;;;;;36.45;32.58;;;14.70;99.90;;;;;;5084737;28;20040;-59
2023/06/22 04:49:43;;;;;;;49.20;38.97;;;14.80;99.90;;;;;;5094515;28;20698;-59
2023/06/22 04:52:10;;;;;;;41.50;33.97;;;14.60;99.90;;;;;;5093606;28;20118;-59
2023/06/22 04:54:38;;;;;;;35.50;30.92;;;14.70;99.90;;;;;;5085741;28;20797;-59
2023/06/22 04:57:09;;;;;;;65.05;39.40;;;14.70;99.90;;;;;;5095126;28;20051;-59
2023/06/22 04:59:36;;;;;;;56.20;42.53;;;14.90;99.90;;;;;;5095434;28;20174;-59
2023/06/22 05:02:02;;;;;;;42.65;35.95;;;15.10;99.90;;;;;;5094204;28;20168;-59
2023/06/22 05:04:32;;;;;;;54.28;41.47;;;15.10;99.90;;;;;;5093436;27;20046;-59
2023/06/22 05:07:02;;;;;;;54.90;43.60;;;15.10;99.90;;;;;;5093990;28;20046;-58
2023/06/22 05:09:28;;;;;;;54.88;41.33;;;15.30;99.90;;;;;;5087415;28;20040;-59
2023/06/22 05:11:56;;;;;;;63.42;45.42;;;15.40;99.90;;;;;;5093485;28;20307;-59
2023/06/22 05:14:22;;;;;;;52.40;41.67;;;15.60;99.90;;;;;;5093228;28;20070;-59
2023/06/22 05:16:49;;;;;;;53.22;41.03;;;15.70;99.90;;;;;;5064485;28;20539;-59
2023/06/22 05:19:14;;;;;;;50.85;41.30;;;15.60;99.90;;;;;;5091487;28;20040;-59
2023/06/22 05:21:40;;;;;;;46.95;39.42;;;15.80;99.90;;;;;;5094210;28;20050;-59
2023/06/22 05:24:06;;;;;;;48.13;39.88;;;15.90;99.90;;;;;;5091823;28;20123;-59
2023/06/22 05:26:34;;;;;;;43.88;39.00;;;16.00;99.90;;;;;;5091440;28;20043;-59
2023/06/22 05:29:02;;;;;;;36.63;32.70;;;16.10;99.90;;;;;;5092877;28;20055;-58
2023/06/22 05:31:28;;;;;;;47.38;37.00;;;16.30;99.90;;;;;;5095802;28;20146;-59
2023/06/22 05:33:54;;;;;;;43.53;38.85;;;16.40;99.90;;;;;;5092052;28;20032;-58
2023/06/22 05:36:21;;;;;;;38.03;32.72;;;16.90;99.90;;;;;;5092727;28;20175;-58
2023/06/22 05:38:47;;;;;;;39.65;35.38;;;16.70;99.90;;;;;;5085600;28;20035;-58
2023/06/22 05:41:13;;;;;;;42.75;36.88;;;16.90;99.90;;;;;;5093061;28;20055;-60
2023/06/22 05:43:40;;;;;;;41.22;35.88;;;17.00;99.90;;;;;;5090851;28;20047;-60
2023/06/22 05:46:06;;;;;;;40.67;34.88;;;17.10;99.90;;;;;;5091721;28;20420;-61
2023/06/22 05:48:32;;;;;;;51.00;38.72;;;17.30;99.90;;;;;;5092782;28;20492;-59
2023/06/22 05:50:58;;;;;;;48.95;39.85;;;17.50;99.90;;;;;;5088405;28;20043;-60
2023/06/22 05:53:24;;;;;;;49.00;37.70;;;17.40;99.90;;;;;;5093546;28;20073;-60
2023/06/22 05:55:50;;;;;;;48.92;38.15;;;17.50;99.90;;;;;;5093805;28;20488;-59
2023/06/22 05:58:16;;;;;;;49.22;39.25;;;17.40;99.90;;;;;;5093328;27;20572;-59
2023/06/22 06:00:43;;;;;;;44.65;36.58;;;17.50;99.90;;;;;;5095288;28;20413;-59
2023/06/22 06:03:09;;;;;;;43.95;34.58;;;17.60;99.90;;;;;;5093403;28;20032;-59
2023/06/22 06:05:36;;;;;;;41.55;34.13;;;17.70;99.90;;;;;;5092841;28;20136;-59
2023/06/22 06:08:04;;;;;;;42.75;34.47;;;17.80;99.90;;;;;;5095161;28;20109;-58
2023/06/22 06:10:30;;;;;;;42.03;36.13;;;18.00;99.90;;;;;;5086557;28;20559;-59
2023/06/22 06:12:56;;;;;;;43.25;35.60;;;18.10;99.90;;;;;;5092390;28;20054;-59
2023/06/22 06:15:23;;;;;;;43.42;36.47;;;18.10;99.90;;;;;;5084151;28;20039;-59
2023/06/22 06:17:50;;;;;;;40.60;33.50;;;18.50;99.90;;;;;;5092267;28;21047;-59
2023/06/22 06:20:20;;;;;;;37.20;32.92;;;18.60;99.90;;;;;;5094003;28;20404;-59
2023/06/22 06:22:45;;;;;;;38.70;34.50;;;18.90;99.90;;;;;;5092973;28;20040;-59
2023/06/22 06:25:15;;;;;;;41.22;33.78;;;18.90;99.90;;;;;;5070077;28;20032;-59
2023/06/22 06:27:45;;;;;;;38.08;31.33;;;19.20;99.90;;;;;;5092696;28;20039;-59
2023/06/22 06:30:12;;;;;;;37.88;32.70;;;19.20;99.90;;;;;;5093159;28;20043;-59
2023/06/22 06:32:39;;;;;;;39.72;33.30;;;19.30;99.90;;;;;;5082212;28;20043;-59
2023/06/22 06:35:09;;;;;;;36.35;32.42;;;19.40;99.90;;;;;;5092494;28;20053;-59
2023/06/22 06:37:44;;;;;;;33.55;29.90;;;19.60;99.90;;;;;;5092139;28;20051;-59
2023/06/22 06:40:11;;;;;;;38.00;31.98;;;19.70;99.90;;;;;;5092123;28;20123;-58
2023/06/22 06:42:44;;;;;;;38.13;30.27;;;19.70;99.90;;;;;;5091685;28;20645;-58
2023/06/22 06:45:11;;;;;;;37.90;30.95;;;19.80;99.90;;;;;;5091927;28;20179;-59
2023/06/22 06:47:37;;;;;;;33.03;29.45;;;20.10;99.90;;;;;;5084433;28;20115;-59
2023/06/22 06:50:04;;;;;;;36.22;32.33;;;20.00;99.90;;;;;;5092323;28;20104;-59
2023/06/22 06:52:30;;;;;;;36.40;30.95;;;20.30;99.90;;;;;;5092249;28;20042;-58
2023/06/22 06:54:56;;;;;;;32.92;29.17;;;20.40;99.90;;;;;;5090983;28;20039;-59
2023/06/22 06:57:22;;;;;;;31.92;27.13;;;20.60;99.90;;;;;;5092512;28;20493;-63
2023/06/22 06:59:49;;;;;;;32.88;28.05;;;20.70;99.90;;;;;;5093715;28;20164;-59
2023/06/22 07:02:15;;;;;;;27.38;24.42;;;20.90;99.90;;;;;;5094018;28;20101;-59
2023/06/22 07:04:41;;;;;;;31.52;26.90;;;20.80;99.90;;;;;;5091616;28;20046;-59
2023/06/22 07:07:07;;;;;;;31.15;26.27;;;20.90;99.90;;;;;;5093447;28;20035;-58
2023/06/22 07:09:32;;;;;;;30.17;25.77;;;21.20;99.90;;;;;;5092892;28;20051;-59
2023/06/22 07:11:58;;;;;;;24.88;21.33;;;21.70;99.90;;;;;;5083635;28;20032;-59
2023/06/22 07:14:24;;;;;;;21.83;18.73;;;22.10;99.90;;;;;;5091803;28;20098;-60
2023/06/22 07:16:50;;;;;;;21.85;19.55;;;22.50;99.90;;;;;;5092349;28;20366;-59
2023/06/22 07:19:15;;;;;;;26.58;19.45;;;22.90;99.90;;;;;;5091843;28;20451;-60
2023/06/22 07:21:41;;;;;;;20.85;14.82;;;23.30;99.90;;;;;;5093523;28;20116;-59
2023/06/22 07:24:07;;;;;;;16.52;13.57;;;23.80;99.90;;;;;;5093215;28;20040;-59
2023/06/22 07:26:33;;;;;;;16.63;14.70;;;24.00;99.90;;;;;;5097129;28;20043;-59
2023/06/22 07:28:59;;;;;;;17.73;14.23;;;24.20;99.90;;;;;;5097064;28;20573;-59
2023/06/22 07:31:26;;;;;;;18.10;12.95;;;24.30;99.90;;;;;;5098419;28;20036;-59
2023/06/22 07:33:51;;;;;;;15.80;12.65;;;24.20;99.90;;;;;;5096404;28;20392;-59
2023/06/22 07:36:18;;;;;;;13.77;11.63;;;24.70;99.90;;;;;;5092097;28;20035;-59
2023/06/22 07:38:44;;;;;;;14.63;11.32;;;25.50;99.90;;;;;;5095967;28;20256;-59
2023/06/22 07:41:09;;;;;;;15.43;10.40;;;25.80;99.90;;;;;;5082856;28;20048;-60
2023/06/22 07:43:36;;;;;;;13.38;10.93;;;26.00;99.90;;;;;;5097136;28;20144;-60
2023/06/22 07:46:06;;;;;;;11.48;9.30;;;26.40;99.90;;;;;;5096861;28;20052;-59
2023/06/22 07:48:32;;;;;;;12.10;9.05;;;26.70;99.90;;;;;;5096230;28;20112;-60
2023/06/22 07:50:58;;;;;;;11.15;8.68;;;26.70;99.90;;;;;;5097374;28;20675;-59
2023/06/22 07:53:23;;;;;;;12.20;9.40;;;25.00;99.90;;;;;;5097082;28;20070;-59
2023/06/22 07:55:50;;;;;;;12.35;9.48;;;27.10;99.90;;;;;;5096411;28;20048;-60
2023/06/22 07:58:18;;;;;;;11.23;9.13;;;27.30;99.90;;;;;;5095288;28;20044;-59
2023/06/22 08:00:44;;;;;;;13.55;9.20;;;27.10;99.90;;;;;;5096426;28;20048;-59
2023/06/22 08:03:10;;;;;;;11.05;8.88;;;26.80;99.90;;;;;;5097639;28;20063;-59
2023/06/22 08:05:35;;;;;;;11.70;8.30;;;26.50;99.90;;;;;;5097860;28;20047;-59
2023/06/22 08:08:01;;;;;;;10.68;9.15;;;26.70;99.90;;;;;;5095712;28;20078;-59
2023/06/22 08:10:27;;;;;;;12.93;8.75;;;26.30;99.90;;;;;;5087418;28;20063;-59
2023/06/22 08:12:53;;;;;;;10.23;9.13;;;26.10;99.90;;;;;;5095530;28;20040;-59
2023/06/22 08:15:19;;;;;;;11.48;8.98;;;26.10;99.90;;;;;;5096737;28;20142;-59
2023/06/22 08:17:48;;;;;;;11.60;8.93;;;26.40;99.90;;;;;;5094561;28;20071;-59
2023/06/22 08:20:14;;;;;;;12.27;8.48;;;26.30;99.90;;;;;;5096209;28;20036;-59
2023/06/22 08:22:43;;;;;;;11.43;8.82;;;26.90;99.90;;;;;;5095682;28;20039;-59
2023/06/22 08:25:09;;;;;;;12.25;8.55;;;27.20;99.90;;;;;;5095939;28;21345;-58
2023/06/22 08:27:36;;;;;;;13.93;9.63;;;27.40;99.90;;;;;;5096300;28;20065;-59
2023/06/22 08:30:02;;;;;;;12.07;9.93;;;27.30;99.90;;;;;;5095994;28;20519;-59
2023/06/22 08:32:28;;;;;;;12.63;9.20;;;27.60;99.90;;;;;;5096528;28;20122;-59
2023/06/22 08:34:57;;;;;;;13.13;9.85;;;27.50;99.90;;;;;;5095444;28;20399;-59
2023/06/22 08:37:24;;;;;;;10.43;9.20;;;27.70;99.90;;;;;;5093928;28;20109;-59
2023/06/22 08:39:50;;;;;;;11.32;9.48;;;28.00;99.90;;;;;;5090666;28;20144;-59
2023/06/22 08:42:16;;;;;;;12.43;9.82;;;28.10;99.90;;;;;;5085197;28;20051;-59
2023/06/22 08:44:42;;;;;;;10.27;8.77;;;26.40;99.90;;;;;;5095775;28;20151;-58
2023/06/22 08:47:07;;;;;;;12.13;9.93;;;28.20;99.90;;;;;;5094334;28;20051;-58
2023/06/22 08:49:33;;;;;;;12.20;10.43;;;28.00;99.90;;;;;;5093836;28;20069;-59
2023/06/22 08:51:59;;;;;;;13.40;9.50;;;27.70;99.90;;;;;;5095993;28;20047;-58
2023/06/22 08:54:25;;;;;;;13.68;9.57;;;28.00;99.90;;;;;;5094985;28;20027;-59
2023/06/22 08:56:50;;;;;;;14.02;9.43;;;28.00;99.90;;;;;;5090141;28;20054;-58
2023/06/22 08:59:16;;;;;;;9.98;7.38;;;27.80;99.90;;;;;;5094884;28;20055;-58
2023/06/22 09:01:45;;;;;;;10.60;8.02;;;27.90;99.90;;;;;;5096897;28;20039;-58
2023/06/22 09:04:11;;;;;;;10.75;8.50;;;27.70;99.90;;;;;;5095243;28;20062;-58
2023/06/22 09:06:44;;;;;;;10.77;8.60;;;27.90;99.90;;;;;;5094343;28;20047;-58
2023/06/22 09:09:11;;;;;;;13.98;10.02;;;28.00;99.90;;;;;;5095509;28;20476;-58
2023/06/22 09:11:36;;;;;;;15.20;9.73;;;27.60;99.90;;;;;;5091713;28;20055;-58
2023/06/22 09:14:03;;;;;;;13.63;9.07;;;27.20;99.90;;;;;;5094329;28;21998;-58
2023/06/22 09:16:29;;;;;;;12.57;8.52;;;27.20;99.90;;;;;;5094124;28;20047;-58
2023/06/22 09:18:55;;;;;;;15.45;7.72;;;27.00;99.90;;;;;;5093598;28;20042;-58
2023/06/22 09:21:20;;;;;;;8.75;6.47;;;26.80;99.90;;;;;;5093856;28;20798;-58
2023/06/22 09:23:50;;;;;;;10.25;7.57;;;26.90;99.90;;;;;;5093956;28;20039;-58
2023/06/22 09:26:15;;;;;;;13.05;8.07;;;26.50;99.90;;;;;;5093255;28;20051;-58
2023/06/22 09:28:41;;;;;;;10.60;9.38;;;26.30;99.90;;;;;;5092955;28;20070;-57
2023/06/22 09:31:07;;;;;;;11.85;8.77;;;25.90;99.90;;;;;;5085423;28;20496;-58
2023/06/22 09:33:33;;;;;;;11.18;8.60;;;25.50;99.90;;;;;;5094113;28;20071;-58
2023/06/22 09:35:58;;;;;;;15.00;9.68;;;25.70;99.90;;;;;;5085750;28;20380;-57
2023/06/22 09:38:24;;;;;;;10.65;8.18;;;25.70;99.90;;;;;;5093351;28;20043;-57
2023/06/22 09:40:50;;;;;;;10.48;8.43;;;25.90;99.90;;;;;;5093728;27;20242;-57
2023/06/22 09:43:16;;;;;;;14.75;7.97;;;25.70;99.90;;;;;;5086621;28;20074;-58
2023/06/22 09:45:42;;;;;;;13.52;8.57;;;25.40;99.90;;;;;;5093905;28;20042;-58
2023/06/22 09:48:09;;;;;;;11.70;7.82;;;25.50;99.90;;;;;;5092114;28;20109;-57
2023/06/22 09:50:37;;;;;;;13.15;8.98;;;25.50;99.90;;;;;;5093787;28;20425;-57
2023/06/22 09:53:02;;;;;;;11.80;8.25;;;25.20;99.90;;;;;;5091930;28;20074;-57
2023/06/22 09:55:28;;;;;;;12.93;8.98;;;25.00;99.90;;;;;;5092464;27;20171;-57
2023/06/22 09:57:55;;;;;;;21.15;9.80;;;25.40;99.90;;;;;;5092417;28;20039;-57
2023/06/22 10:00:22;;;;;;;11.02;8.45;;;25.40;99.90;;;;;;5092711;28;20500;-57
2023/06/22 10:02:48;;;;;;;11.52;9.27;;;25.20;99.90;;;;;;5094383;28;20042;-57
2023/06/22 10:05:13;;;;;;;11.95;8.90;;;25.10;99.90;;;;;;5094731;28;20040;-57
2023/06/22 10:07:42;;;;;;;11.63;8.13;;;25.30;99.90;;;;;;5092496;28;20043;-57
2023/06/22 10:10:09;;;;;;;11.15;7.57;;;25.30;99.90;;;;;;5092733;28;20115;-56
2023/06/22 10:12:34;;;;;;;13.35;8.00;;;25.30;99.90;;;;;;5093059;28;20236;-57
2023/06/22 10:15:00;;;;;;;11.52;8.63;;;24.90;99.90;;;;;;5093495;28;20066;-57
2023/06/22 10:17:26;;;;;;;11.48;8.70;;;25.00;99.90;;;;;;5092699;28;20051;-57
2023/06/22 10:19:51;;;;;;;11.02;8.80;;;24.80;99.90;;;;;;5085551;28;20028;-56
2023/06/22 10:22:17;;;;;;;12.27;8.43;;;24.80;99.90;;;;;;5093444;28;20048;-57
2023/06/22 10:24:44;;;;;;;10.60;7.43;;;25.30;99.90;;;;;;5091939;28;20048;-57
2023/06/22 10:27:13;;;;;;;10.25;7.57;;;25.50;99.90;;;;;;5091697;28;20048;-57
2023/06/22 10:29:39;;;;;;;12.13;8.57;;;25.90;99.90;;;;;;5091632;28;20039;-57
2023/06/22 10:32:05;;;;;;;11.73;7.82;;;25.70;99.90;;;;;;5095199;28;20044;-57
2023/06/22 10:34:31;;;;;;;11.90;8.32;;;25.60;99.90;;;;;;5093031;28;20338;-58
2023/06/22 10:36:57;;;;;;;12.27;8.75;;;25.30;99.90;;;;;;5092185;28;20040;-57
2023/06/22 10:39:22;;;;;;;11.27;7.53;;;25.10;99.90;;;;;;5092912;28;20083;-57
2023/06/22 10:41:48;;;;;;;12.73;8.30;;;24.90;99.90;;;;;;5092848;28;20128;-58
2023/06/22 10:44:14;;;;;;;12.68;8.18;;;24.70;99.90;;;;;;5092487;28;20108;-56
2023/06/22 10:46:40;;;;;;;9.30;7.30;;;24.70;99.90;;;;;;5091914;28;20054;-57
2023/06/22 10:49:05;;;;;;;11.02;7.30;;;24.80;99.90;;;;;;5082543;28;20086;-57
2023/06/22 10:51:32;;;;;;;10.38;7.85;;;25.10;99.90;;;;;;5092860;28;20039;-57
2023/06/22 10:53:57;;;;;;;9.90;7.38;;;25.10;99.90;;;;;;5092134;28;20081;-58
2023/06/22 10:56:23;;;;;;;11.98;8.93;;;25.20;99.90;;;;;;5092890;28;20118;-57
2023/06/22 10:58:49;;;;;;;10.57;8.13;;;25.30;99.90;;;;;;5090596;28;20043;-58
2023/06/22 11:01:15;;;;;;;10.70;7.40;;;25.20;99.90;;;;;;5093430;28;20146;-57
2023/06/22 11:03:40;;;;;;;10.23;7.32;;;25.00;99.90;;;;;;5093119;28;20071;-57
2023/06/22 11:06:06;;;;;;;9.68;7.35;;;25.20;99.90;;;;;;5092615;28;20036;-57
2023/06/22 11:08:32;;;;;;;8.93;7.00;;;25.50;99.90;;;;;;5091924;28;20093;-58
2023/06/22 11:10:58;;;;;;;7.97;6.35;;;25.50;99.90;;;;;;5093116;28;20071;-57
2023/06/22 11:13:24;;;;;;;9.88;7.40;;;25.60;99.90;;;;;;5091743;28;20054;-57
2023/06/22 11:15:50;;;;;;;10.55;7.78;;;25.40;99.90;;;;;;5092125;28;20058;-57
2023/06/22 11:18:16;;;;;;;10.40;7.43;;;25.40;99.90;;;;;;5092460;28;20052;-58
2023/06/22 11:20:42;;;;;;;11.07;7.18;;;25.30;99.90;;;;;;5092957;28;20052;-57
2023/06/22 11:23:08;;;;;;;12.85;6.32;;;25.30;99.90;;;;;;5092971;28;20400;-57
2023/06/22 11:25:38;;;;;;;8.38;5.05;;;25.20;99.90;;;;;;5090077;28;20139;-58
2023/06/22 11:28:04;;;;;;;8.20;5.57;;;25.20;99.90;;;;;;5084721;28;20067;-57
2023/06/22 11:30:30;;;;;;;10.05;6.93;;;25.30;99.90;;;;;;5093020;28;20043;-57
2023/06/22 11:32:58;;;;;;;13.18;6.95;;;25.20;99.90;;;;;;5092599;28;20082;-58
2023/06/22 11:35:24;;;;;;;10.30;7.10;;;25.00;99.90;;;;;;5091890;28;20107;-58
2023/06/22 11:37:49;;;;;;;12.60;6.72;;;25.20;99.90;;;;;;5092665;28;20039;-58
2023/06/22 11:40:17;;;;;;;10.75;6.32;;;25.10;99.90;;;;;;5093104;28;20047;-58
2023/06/22 11:42:43;;;;;;;7.90;6.43;;;25.10;99.90;;;;;;5091943;28;20089;-58
2023/06/22 11:45:09;;;;;;;10.50;6.32;;;25.10;99.90;;;;;;5090268;28;20139;-58
2023/06/22 11:47:36;;;;;;;9.80;6.32;;;25.20;99.90;;;;;;5091343;28;20147;-58
2023/06/22 11:50:03;;;;;;;13.07;7.88;;;25.00;99.90;;;;;;5093698;28;20047;-58
2023/06/22 11:52:28;;;;;;;9.48;6.60;;;24.80;99.90;;;;;;5092600;28;20813;-57
2023/06/22 11:54:54;;;;;;;11.48;6.30;;;25.00;99.90;;;;;;5087368;28;20040;-58
2023/06/22 11:57:20;;;;;;;11.85;6.25;;;25.20;99.90;;;;;;5091516;28;20112;-58
2023/06/22 11:59:45;;;;;;;9.38;6.75;;;25.20;99.90;;;;;;5092810;28;20032;-58
2023/06/22 12:02:11;;;;;;;11.30;7.30;;;25.00;99.90;;;;;;5091510;28;20571;-58
2023/06/22 12:04:37;;;;;;;12.20;8.07;;;25.10;99.90;;;;;;5092403;28;20042;-58
2023/06/22 12:07:03;;;;;;;11.05;7.90;;;25.10;99.90;;;;;;5068190;28;20067;-57
2023/06/22 12:09:29;;;;;;;12.60;8.55;;;25.00;99.90;;;;;;5091809;28;20154;-58
2023/06/22 12:11:55;;;;;;;11.38;9.73;;;24.80;99.90;;;;;;5087034;28;20500;-58
2023/06/22 12:14:20;;;;;;;10.48;8.10;;;24.50;99.90;;;;;;5088824;28;20047;-58
2023/06/22 12:16:46;;;;;;;9.05;7.85;;;24.50;99.90;;;;;;5096326;28;20109;-58
2023/06/22 12:19:12;;;;;;;10.25;7.88;;;24.60;99.90;;;;;;5096668;27;20101;-58
2023/06/22 12:21:39;;;;;;;10.07;7.50;;;24.80;99.90;;;;;;5094692;28;20286;-58
2023/06/22 12:24:05;;;;;;;14.30;8.25;;;24.60;99.90;;;;;;5093143;28;20052;-58
2023/06/22 12:26:30;;;;;;;11.02;7.60;;;24.50;99.90;;;;;;5094360;28;20048;-59
2023/06/22 12:28:56;;;;;;;10.50;7.30;;;24.30;99.90;;;;;;5085498;28;20039;-58